createdAt,value
2017-12-30T00:02:01.767Z,6.20
2017-12-30T00:04:29.406Z,4.53
2017-12-30T00:06:57.054Z,5.90
2017-12-30T00:09:24.674Z,7.97
2017-12-30T00:11:53.059Z,6.77
2017-12-30T00:14:20.630Z,5.53
2017-12-30T00:16:48.249Z,3.43
2017-12-30T00:19:16.304Z,8.10
2017-12-30T00:21:43.989Z,2.90
2017-12-30T00:24:11.573Z,7.77
2017-12-30T00:26:39.164Z,10.87
2017-12-30T00:29:06.823Z,11.97
2017-12-30T00:31:34.407Z,5.00
2017-12-30T00:34:02.007Z,6.57
2017-12-30T00:36:29.601Z,11.30
2017-12-30T00:38:57.266Z,8.27
2017-12-30T00:41:24.946Z,8.93
2017-12-30T00:43:52.590Z,8.30
2017-12-30T00:46:20.235Z,10.90
2017-12-30T00:48:47.844Z,9.10
2017-12-30T00:51:15.455Z,4.40
2017-12-30T00:53:43.108Z,11.67
2017-12-30T00:56:11.424Z,5.77
2017-12-30T00:58:39.013Z,7.27
2017-12-30T01:01:06.622Z,3.93
2017-12-30T01:03:34.265Z,4.13
2017-12-30T01:06:01.926Z,10.03
2017-12-30T01:08:29.518Z,7.03
2017-12-30T01:10:57.168Z,10.23
2017-12-30T01:13:25.049Z,5.43
2017-12-30T01:15:52.818Z,9.53
2017-12-30T01:18:20.853Z,7.90
2017-12-30T01:20:48.430Z,9.97
2017-12-30T01:23:16.086Z,6.63
2017-12-30T01:25:43.795Z,5.57
2017-12-30T01:28:11.418Z,9.23
2017-12-30T01:30:39.050Z,7.70
2017-12-30T01:33:06.635Z,9.90
2017-12-30T01:35:34.290Z,6.00
2017-12-30T01:38:01.912Z,5.37
2017-12-30T01:40:29.509Z,7.03
2017-12-30T01:42:57.070Z,8.07
2017-12-30T01:45:24.671Z,4.97
2017-12-30T01:47:52.360Z,11.63
2017-12-30T01:50:19.962Z,12.50
2017-12-30T01:52:47.559Z,7.40
2017-12-30T01:55:15.158Z,9.83
2017-12-30T01:57:42.774Z,9.83
2017-12-30T02:00:10.416Z,13.03
2017-12-30T02:02:38.048Z,10.60
2017-12-30T02:05:05.602Z,5.20
2017-12-30T02:07:33.215Z,9.57
2017-12-30T02:10:00.790Z,9.40
2017-12-30T02:12:28.382Z,5.90
2017-12-30T02:14:55.965Z,4.43
2017-12-30T02:17:23.569Z,3.90
2017-12-30T02:19:51.167Z,5.13
2017-12-30T02:22:18.758Z,12.50
2017-12-30T02:24:46.341Z,9.53
2017-12-30T02:27:13.926Z,13.73
2017-12-30T02:29:41.546Z,7.90
2017-12-30T02:32:09.151Z,8.57
2017-12-30T02:34:36.779Z,15.70
2017-12-30T02:37:04.336Z,8.87
2017-12-30T02:39:31.897Z,8.40
2017-12-30T02:41:59.492Z,7.40
2017-12-30T02:44:27.094Z,6.20
2017-12-30T02:46:54.683Z,9.33
2017-12-30T02:49:22.278Z,10.47
2017-12-30T02:51:50.276Z,6.27
2017-12-30T02:54:17.844Z,10.30
2017-12-30T02:56:45.459Z,3.53
2017-12-30T02:59:13.052Z,9.40
2017-12-30T03:01:40.681Z,11.87
2017-12-30T03:04:08.242Z,8.37
2017-12-30T03:06:36.001Z,7.00
2017-12-30T03:09:03.592Z,11.37
2017-12-30T03:11:31.198Z,6.13
2017-12-30T03:13:59.230Z,9.97
2017-12-30T03:16:26.854Z,7.40
2017-12-30T03:18:54.697Z,7.10
2017-12-30T03:21:22.299Z,11.93
2017-12-30T03:23:49.898Z,9.03
2017-12-30T03:26:17.523Z,8.50
2017-12-30T03:28:45.087Z,7.93
2017-12-30T03:31:12.687Z,6.80
2017-12-30T03:33:40.304Z,9.10
2017-12-30T03:36:07.894Z,9.93
2017-12-30T03:38:35.471Z,4.93
2017-12-30T03:41:03.074Z,9.50
2017-12-30T03:43:30.646Z,9.90
2017-12-30T03:45:58.235Z,11.77
2017-12-30T03:48:25.879Z,5.63
2017-12-30T03:50:53.483Z,11.60
2017-12-30T03:53:21.069Z,3.87
2017-12-30T03:55:48.855Z,6.23
2017-12-30T03:58:16.456Z,13.97
2017-12-30T04:00:44.022Z,4.93
2017-12-30T04:03:12.065Z,8.77
2017-12-30T04:05:39.632Z,10.97
2017-12-30T04:08:07.361Z,3.23
2017-12-30T04:10:34.942Z,4.97
2017-12-30T04:13:02.536Z,9.20
2017-12-30T04:15:30.133Z,6.03
2017-12-30T04:17:57.792Z,7.00
2017-12-30T04:20:25.346Z,5.63
2017-12-30T04:22:52.916Z,9.27
2017-12-30T04:25:20.557Z,8.20
2017-12-30T04:27:48.154Z,9.07
2017-12-30T04:30:15.752Z,8.33
2017-12-30T04:32:43.371Z,10.33
2017-12-30T04:35:10.990Z,11.77
2017-12-30T04:37:38.850Z,10.47
2017-12-30T04:40:06.409Z,12.40
2017-12-30T04:42:33.995Z,9.67
2017-12-30T04:45:01.580Z,10.87
2017-12-30T04:47:29.414Z,6.43
2017-12-30T04:49:56.970Z,3.50
2017-12-30T04:52:24.584Z,16.50
2017-12-30T04:54:52.175Z,10.97
2017-12-30T04:57:19.764Z,8.33
2017-12-30T04:59:47.447Z,7.13
2017-12-30T05:02:15.058Z,4.07
2017-12-30T05:04:42.670Z,9.50
2017-12-30T05:07:10.285Z,11.30
2017-12-30T05:09:37.896Z,7.07
2017-12-30T05:12:05.905Z,7.20
2017-12-30T05:14:33.568Z,6.37
2017-12-30T05:17:01.206Z,9.00
2017-12-30T05:19:28.821Z,7.97
2017-12-30T05:21:56.402Z,4.20
2017-12-30T05:24:24.229Z,7.63
2017-12-30T05:26:51.782Z,11.70
2017-12-30T05:29:19.539Z,7.97
2017-12-30T05:31:47.121Z,11.17
2017-12-30T05:34:14.747Z,10.47
2017-12-30T05:36:42.451Z,12.13
2017-12-30T05:39:10.074Z,7.87
2017-12-30T05:41:37.623Z,5.37
2017-12-30T05:44:05.209Z,5.07
2017-12-30T05:46:32.795Z,5.13
2017-12-30T05:49:00.395Z,7.87
2017-12-30T05:51:27.965Z,11.17
2017-12-30T05:53:55.552Z,8.13
2017-12-30T05:56:23.116Z,5.27
2017-12-30T05:58:51.089Z,7.97
2017-12-30T06:01:18.687Z,10.60
2017-12-30T06:03:46.276Z,7.73
2017-12-30T06:06:13.910Z,6.43
2017-12-30T06:08:41.499Z,2.33
2017-12-30T06:11:09.065Z,8.43
2017-12-30T06:13:36.656Z,3.37
2017-12-30T06:16:04.219Z,5.90
2017-12-30T06:18:32.029Z,4.40
2017-12-30T06:20:59.619Z,4.30
2017-12-30T06:23:27.200Z,5.47
2017-12-30T06:25:54.807Z,4.93
2017-12-30T06:28:22.385Z,6.07
2017-12-30T06:30:49.999Z,6.93
2017-12-30T06:33:17.615Z,5.23
2017-12-30T06:35:45.548Z,6.67
2017-12-30T06:38:13.124Z,4.77
2017-12-30T06:40:40.753Z,3.10
2017-12-30T06:43:08.528Z,6.30
2017-12-30T06:45:36.141Z,6.23
2017-12-30T06:48:04.101Z,9.23
2017-12-30T06:50:31.699Z,3.60
2017-12-30T06:52:59.321Z,9.73
2017-12-30T06:55:26.927Z,19.03
2017-12-30T06:57:54.519Z,13.27
2017-12-30T07:00:22.154Z,14.23
2017-12-30T07:02:49.741Z,9.47
2017-12-30T07:05:17.355Z,6.83
2017-12-30T07:07:44.967Z,4.57
2017-12-30T07:10:12.573Z,6.57
2017-12-30T07:12:40.354Z,5.97
2017-12-30T07:15:07.960Z,5.80
2017-12-30T07:17:35.559Z,5.83
2017-12-30T07:20:03.151Z,6.73
2017-12-30T07:22:30.751Z,8.90
2017-12-30T07:24:58.319Z,9.47
2017-12-30T07:27:26.619Z,6.37
2017-12-30T07:29:54.260Z,3.83
2017-12-30T07:32:21.853Z,5.80
2017-12-30T07:34:49.702Z,8.30
2017-12-30T07:37:17.331Z,4.17
2017-12-30T07:39:44.881Z,3.63
2017-12-30T07:42:13.512Z,4.23
2017-12-30T07:44:41.092Z,3.20
2017-12-30T07:47:08.739Z,7.17
2017-12-30T07:49:36.383Z,2.30
2017-12-30T07:52:04.011Z,2.47
2017-12-30T07:54:31.605Z,1.70
2017-12-30T07:56:59.364Z,4.23
2017-12-30T07:59:27.036Z,0.73
2017-12-30T08:01:54.715Z,1.83
2017-12-30T08:04:22.327Z,1.87
2017-12-30T08:06:49.885Z,1.20
2017-12-30T08:09:17.742Z,2.77
2017-12-30T08:11:45.366Z,1.87
2017-12-30T08:14:13.004Z,2.03
2017-12-30T08:16:40.642Z,1.60
2017-12-30T08:19:08.231Z,3.33
2017-12-30T08:21:35.815Z,1.60
2017-12-30T08:24:03.934Z,4.30
2017-12-30T08:26:31.538Z,1.03
2017-12-30T08:28:59.143Z,2.93
2017-12-30T08:31:26.744Z,1.63
2017-12-30T08:33:54.349Z,1.73
2017-12-30T08:36:21.954Z,1.50
2017-12-30T08:38:49.531Z,0.90
2017-12-30T08:41:17.156Z,0.97
2017-12-30T08:43:44.727Z,1.40
2017-12-30T08:46:12.319Z,1.27
2017-12-30T08:48:39.911Z,5.20
2017-12-30T08:51:07.495Z,3.27
2017-12-30T08:53:35.100Z,7.10
2017-12-30T08:56:02.663Z,12.47
2017-12-30T08:58:30.272Z,12.73
2017-12-30T09:00:57.835Z,15.97
2017-12-30T09:03:25.456Z,6.00
2017-12-30T09:05:53.047Z,4.10
2017-12-30T09:08:20.635Z,4.93
2017-12-30T09:10:48.235Z,1.83
2017-12-30T09:13:15.827Z,1.67
2017-12-30T09:15:43.387Z,3.17
2017-12-30T09:18:10.954Z,8.57
2017-12-30T09:20:38.525Z,3.30
2017-12-30T09:23:06.118Z,1.57
2017-12-30T09:25:33.714Z,1.77
2017-12-30T09:28:01.323Z,1.67
2017-12-30T09:30:28.943Z,2.57
2017-12-30T09:32:56.683Z,3.80
2017-12-30T09:35:24.344Z,2.47
2017-12-30T09:37:51.937Z,1.80
2017-12-30T09:40:19.539Z,1.20
2017-12-30T09:42:47.089Z,1.13
2017-12-30T09:45:14.681Z,1.10
2017-12-30T09:47:43.228Z,2.40
2017-12-30T09:50:10.819Z,1.47
2017-12-30T09:52:38.433Z,1.67
2017-12-30T09:55:06.423Z,1.47
2017-12-30T09:57:34.036Z,7.27
2017-12-30T10:00:01.655Z,1.20
2017-12-30T10:02:29.252Z,1.00
2017-12-30T10:04:56.882Z,1.67
2017-12-30T10:07:24.538Z,3.80
2017-12-30T10:09:52.152Z,4.17
2017-12-30T10:12:20.173Z,4.10
2017-12-30T10:14:47.756Z,4.03
2017-12-30T10:17:15.411Z,2.90
2017-12-30T10:19:43.024Z,2.13
2017-12-30T10:22:10.595Z,0.70
2017-12-30T10:24:38.224Z,0.40
2017-12-30T10:27:05.816Z,0.60
2017-12-30T10:29:33.419Z,0.40
2017-12-30T10:32:01.038Z,0.53
2017-12-30T10:34:28.655Z,0.30
2017-12-30T10:36:56.251Z,0.50
2017-12-30T10:39:23.860Z,0.40
2017-12-30T10:41:51.432Z,0.30
2017-12-30T10:44:19.032Z,0.40
2017-12-30T10:46:46.624Z,0.30
2017-12-30T10:49:14.263Z,0.30
2017-12-30T10:51:41.904Z,0.30
2017-12-30T10:54:09.495Z,0.53
2017-12-30T10:56:37.135Z,0.60
2017-12-30T10:59:04.678Z,0.50
2017-12-30T11:01:32.251Z,0.30
2017-12-30T11:03:59.830Z,0.20
2017-12-30T11:06:27.396Z,0.30
2017-12-30T11:08:54.953Z,0.30
2017-12-30T11:11:22.557Z,0.33
2017-12-30T11:13:50.160Z,0.37
2017-12-30T11:16:17.802Z,0.50
2017-12-30T11:18:45.363Z,1.20
2017-12-30T11:21:12.955Z,0.40
2017-12-30T11:23:40.554Z,0.30
2017-12-30T11:26:08.137Z,0.30
2017-12-30T11:28:35.676Z,0.63
2017-12-30T11:31:03.270Z,0.30
2017-12-30T11:33:30.864Z,1.70
2017-12-30T11:35:58.487Z,0.30
2017-12-30T11:38:26.099Z,0.30
2017-12-30T11:40:53.703Z,0.47
2017-12-30T11:43:21.358Z,0.53
2017-12-30T11:45:48.923Z,0.50
2017-12-30T11:48:16.628Z,1.90
2017-12-30T11:50:44.194Z,1.87
2017-12-30T11:53:11.808Z,2.93
2017-12-30T11:55:39.948Z,1.13
2017-12-30T11:58:08.474Z,1.50
2017-12-30T12:00:36.098Z,1.23
2017-12-30T12:03:03.676Z,1.57
2017-12-30T12:05:31.263Z,0.70
2017-12-30T12:07:59.135Z,2.57
2017-12-30T12:10:26.723Z,0.50
2017-12-30T12:12:54.299Z,0.30
2017-12-30T12:15:21.879Z,0.40
2017-12-30T12:17:49.470Z,0.60
2017-12-30T12:20:17.053Z,0.47
2017-12-30T12:22:44.647Z,0.43
2017-12-30T12:25:12.211Z,0.47
2017-12-30T12:27:39.807Z,0.30
2017-12-30T12:30:07.376Z,1.83
2017-12-30T12:32:34.967Z,0.50
2017-12-30T12:35:02.551Z,1.07
2017-12-30T12:37:30.187Z,1.67
2017-12-30T12:39:57.750Z,0.70
2017-12-30T12:42:25.308Z,0.70
2017-12-30T12:44:53.335Z,1.50
2017-12-30T12:47:20.988Z,0.73
2017-12-30T12:49:48.569Z,2.43
2017-12-30T12:52:16.179Z,2.80
2017-12-30T12:54:43.805Z,2.63
2017-12-30T12:57:11.385Z,2.40
2017-12-30T12:59:39.054Z,1.83
2017-12-30T13:02:06.665Z,2.50
2017-12-30T13:04:34.263Z,2.27
2017-12-30T13:07:01.868Z,3.30
2017-12-30T13:09:29.461Z,5.13
2017-12-30T13:11:57.053Z,2.20
2017-12-30T13:14:24.681Z,5.30
2017-12-30T13:16:52.268Z,2.27
2017-12-30T13:19:19.899Z,0.93
2017-12-30T13:21:47.525Z,5.27
2017-12-30T13:24:15.124Z,1.80
2017-12-30T13:26:42.748Z,1.03
2017-12-30T13:29:10.362Z,2.23
2017-12-30T13:31:37.932Z,2.03
2017-12-30T13:34:05.521Z,0.77
2017-12-30T13:36:33.663Z,4.43
2017-12-30T13:39:01.279Z,2.50
2017-12-30T13:41:28.905Z,3.70
2017-12-30T13:43:56.487Z,2.23
2017-12-30T13:46:24.080Z,2.77
2017-12-30T13:48:51.667Z,2.00
2017-12-30T13:51:19.324Z,4.23
2017-12-30T13:53:46.904Z,3.03
2017-12-30T13:56:14.528Z,1.90
2017-12-30T13:58:42.108Z,1.13
2017-12-30T14:01:10.107Z,2.07
2017-12-30T14:03:37.699Z,1.90
2017-12-30T14:06:05.276Z,1.73
2017-12-30T14:08:32.867Z,1.20
2017-12-30T14:11:00.512Z,1.40
2017-12-30T14:13:28.493Z,1.17
2017-12-30T14:15:56.128Z,2.13
2017-12-30T14:18:23.717Z,2.03
2017-12-30T14:20:51.384Z,0.60
2017-12-30T14:23:18.965Z,0.80
2017-12-30T14:25:46.560Z,1.00
2017-12-30T14:28:14.112Z,0.80
2017-12-30T14:30:41.778Z,0.60
2017-12-30T14:33:09.456Z,1.57
2017-12-30T14:35:37.512Z,0.80
2017-12-30T14:38:05.103Z,0.70
2017-12-30T14:40:32.695Z,0.50
2017-12-30T14:43:00.282Z,1.83
2017-12-30T14:45:27.928Z,2.87
2017-12-30T14:47:55.483Z,2.50
2017-12-30T14:50:23.109Z,1.63
2017-12-30T14:52:50.693Z,1.70
2017-12-30T14:55:18.356Z,1.87
2017-12-30T14:57:45.982Z,1.57
2017-12-30T15:00:13.579Z,1.43
2017-12-30T15:02:41.235Z,1.40
2017-12-30T15:05:08.871Z,2.00
2017-12-30T15:07:36.459Z,1.87
2017-12-30T15:10:04.019Z,1.00
2017-12-30T15:12:31.671Z,0.80
2017-12-30T15:14:59.255Z,2.10
2017-12-30T15:17:26.898Z,1.87
2017-12-30T15:19:54.487Z,0.77
2017-12-30T15:22:22.551Z,1.37
2017-12-30T15:24:50.181Z,0.50
2017-12-30T15:27:17.808Z,0.87
2017-12-30T15:29:45.437Z,0.80
2017-12-30T15:32:13.076Z,1.00
2017-12-30T15:34:40.712Z,1.13
2017-12-30T15:37:08.308Z,1.30
2017-12-30T15:39:35.931Z,0.60
2017-12-30T15:42:03.568Z,2.13
2017-12-30T15:44:31.127Z,0.67
2017-12-30T15:46:58.719Z,1.17
2017-12-30T15:49:26.336Z,1.27
2017-12-30T15:51:53.971Z,0.50
2017-12-30T15:54:21.665Z,0.60
2017-12-30T15:56:49.327Z,0.90
2017-12-30T15:59:17.043Z,0.93
2017-12-30T16:01:44.616Z,0.60
2017-12-30T16:04:12.214Z,0.70
2017-12-30T16:06:39.785Z,0.50
2017-12-30T16:09:07.469Z,1.13
2017-12-30T16:11:35.053Z,1.70
2017-12-30T16:14:03.122Z,0.93
2017-12-30T16:16:30.699Z,0.60
2017-12-30T16:18:58.309Z,1.47
2017-12-30T16:21:25.915Z,2.60
2017-12-30T16:23:53.546Z,0.50
2017-12-30T16:26:21.128Z,2.00
2017-12-30T16:28:48.755Z,1.90
2017-12-30T16:31:16.346Z,1.70
2017-12-30T16:33:43.967Z,1.33
2017-12-30T16:36:11.581Z,0.50
2017-12-30T16:38:39.241Z,2.10
2017-12-30T16:41:06.902Z,0.80
2017-12-30T16:43:34.589Z,1.70
2017-12-30T16:46:02.156Z,2.17
2017-12-30T16:48:29.771Z,0.60
2017-12-30T16:50:57.392Z,0.83
2017-12-30T16:53:24.987Z,1.67
2017-12-30T16:55:52.585Z,1.10
2017-12-30T16:58:20.214Z,1.57
2017-12-30T17:00:47.919Z,1.57
2017-12-30T17:03:15.580Z,2.03
2017-12-30T17:05:43.139Z,0.73
2017-12-30T17:08:10.789Z,0.50
2017-12-30T17:10:38.440Z,1.40
2017-12-30T17:13:06.061Z,1.00
2017-12-30T17:15:33.715Z,0.90
2017-12-30T17:18:01.326Z,1.10
2017-12-30T17:20:28.991Z,0.50
2017-12-30T17:22:56.605Z,0.93
2017-12-30T17:25:24.251Z,0.80
2017-12-30T17:27:51.918Z,1.43
2017-12-30T17:30:19.565Z,1.43
2017-12-30T17:32:47.237Z,1.33
2017-12-30T17:35:14.890Z,0.70
2017-12-30T17:37:42.506Z,1.33
2017-12-30T17:40:10.139Z,0.70
2017-12-30T17:42:38.197Z,1.10
2017-12-30T17:45:06.932Z,0.73
2017-12-30T17:47:34.554Z,0.90
2017-12-30T17:50:02.650Z,2.13
2017-12-30T17:52:30.417Z,0.50
2017-12-30T17:54:58.152Z,0.60
2017-12-30T17:57:25.835Z,0.70
2017-12-30T17:59:53.471Z,1.10
2017-12-30T18:02:21.554Z,0.67
2017-12-30T18:04:49.667Z,1.23
2017-12-30T18:07:17.305Z,0.80
2017-12-30T18:09:45.034Z,4.30
2017-12-30T18:12:12.674Z,0.70
2017-12-30T18:14:40.326Z,0.83
2017-12-30T18:17:07.971Z,0.70
2017-12-30T18:19:35.582Z,1.07
2017-12-30T18:22:03.205Z,1.00
2017-12-30T18:24:30.855Z,0.80
2017-12-30T18:26:58.531Z,3.60
2017-12-30T18:29:26.240Z,0.90
2017-12-30T18:31:54.003Z,0.60
2017-12-30T18:34:21.628Z,1.97
2017-12-30T18:36:49.283Z,0.90
2017-12-30T18:39:16.916Z,0.90
2017-12-30T18:41:44.591Z,0.60
2017-12-30T18:44:13.081Z,0.60
2017-12-30T18:46:41.066Z,0.57
2017-12-30T18:49:09.093Z,1.70
2017-12-30T18:51:37.163Z,0.60
2017-12-30T18:54:04.791Z,0.60
2017-12-30T18:56:32.452Z,1.30
2017-12-30T18:59:00.087Z,1.03
2017-12-30T19:01:27.722Z,0.60
2017-12-30T19:03:55.370Z,0.50
2017-12-30T19:06:23.419Z,2.43
2017-12-30T19:08:51.061Z,1.60
2017-12-30T19:11:18.720Z,0.97
2017-12-30T19:13:46.374Z,0.67
2017-12-30T19:16:14.035Z,0.50
2017-12-30T19:18:41.707Z,1.70
2017-12-30T19:21:09.282Z,0.60
2017-12-30T19:23:36.941Z,1.33
2017-12-30T19:26:04.610Z,1.27
2017-12-30T19:28:32.269Z,1.80
2017-12-30T19:30:59.941Z,0.70
2017-12-30T19:33:27.655Z,0.60
2017-12-30T19:35:55.272Z,0.77
2017-12-30T19:38:22.923Z,0.40
2017-12-30T19:40:50.626Z,0.40
2017-12-30T19:43:18.214Z,0.70
2017-12-30T19:45:45.882Z,0.60
2017-12-30T19:48:13.562Z,0.60
2017-12-30T19:50:41.233Z,0.43
2017-12-30T19:53:08.890Z,0.40
2017-12-30T19:55:36.522Z,0.60
2017-12-30T19:58:04.184Z,0.40
2017-12-30T20:00:32.028Z,0.40
2017-12-30T20:02:59.691Z,0.50
2017-12-30T20:05:27.334Z,0.50
2017-12-30T20:07:54.969Z,1.03
2017-12-30T20:10:22.602Z,1.50
2017-12-30T20:12:50.232Z,0.63
2017-12-30T20:15:17.882Z,0.50
2017-12-30T20:17:45.519Z,1.23
2017-12-30T20:20:13.158Z,0.37
2017-12-30T20:22:40.810Z,0.40
2017-12-30T20:25:08.878Z,0.40
2017-12-30T20:27:36.541Z,1.13
2017-12-30T20:30:04.205Z,0.40
2017-12-30T20:32:32.255Z,0.30
2017-12-30T20:34:59.966Z,0.40
2017-12-30T20:37:27.583Z,0.40
2017-12-30T20:39:55.242Z,0.30
2017-12-30T20:42:22.909Z,0.40
2017-12-30T20:44:50.566Z,0.40
2017-12-30T20:47:18.226Z,0.40
2017-12-30T20:49:45.971Z,0.40
2017-12-30T20:52:14.039Z,0.67
2017-12-30T20:54:41.701Z,0.43
2017-12-30T20:57:09.889Z,0.40
2017-12-30T20:59:37.563Z,0.40
2017-12-30T21:02:05.214Z,1.10
2017-12-30T21:04:32.912Z,0.40
2017-12-30T21:07:00.562Z,0.40
2017-12-30T21:09:28.267Z,0.40
2017-12-30T21:11:55.940Z,0.50
2017-12-30T21:14:23.606Z,0.40
2017-12-30T21:16:51.259Z,0.40
2017-12-30T21:19:18.904Z,0.40
2017-12-30T21:21:46.671Z,1.07
2017-12-30T21:24:14.372Z,0.40
2017-12-30T21:26:42.020Z,0.40
2017-12-30T21:29:09.709Z,0.30
2017-12-30T21:31:37.325Z,0.40
2017-12-30T21:34:04.967Z,0.40
2017-12-30T21:36:32.650Z,0.40
2017-12-30T21:39:00.346Z,0.27
2017-12-30T21:41:28.010Z,0.40
2017-12-30T21:43:55.663Z,0.30
2017-12-30T21:46:23.714Z,0.30
2017-12-30T21:48:51.851Z,0.50
2017-12-30T21:51:19.509Z,0.40
2017-12-30T21:53:47.151Z,0.60
2017-12-30T21:56:14.829Z,0.30
2017-12-30T21:58:42.491Z,0.33
2017-12-30T22:01:10.177Z,0.37
2017-12-30T22:03:37.839Z,0.43
2017-12-30T22:06:05.506Z,0.50
2017-12-30T22:08:33.957Z,0.40
2017-12-30T22:11:01.624Z,0.30
2017-12-30T22:13:29.348Z,0.30
2017-12-30T22:15:56.995Z,0.40
2017-12-30T22:18:24.600Z,1.13
2017-12-30T22:20:52.249Z,0.73
2017-12-30T22:23:19.894Z,0.40
2017-12-30T22:25:47.559Z,0.50
2017-12-30T22:28:15.218Z,0.40
2017-12-30T22:30:42.855Z,0.40
2017-12-30T22:33:10.491Z,0.37
2017-12-30T22:35:38.155Z,0.40
2017-12-30T22:38:06.234Z,0.87
2017-12-30T22:40:33.979Z,0.60
2017-12-30T22:43:01.629Z,1.03
2017-12-30T22:45:29.315Z,1.10
2017-12-30T22:47:56.988Z,0.40
2017-12-30T22:50:24.643Z,0.30
2017-12-30T22:52:52.311Z,0.43
2017-12-30T22:55:19.990Z,0.37
2017-12-30T22:57:47.749Z,0.40
2017-12-30T23:00:15.398Z,0.50
2017-12-30T23:02:43.052Z,0.33
2017-12-30T23:05:10.715Z,0.73
2017-12-30T23:07:38.354Z,0.43
2017-12-30T23:10:06.008Z,0.30
2017-12-30T23:12:33.811Z,0.33
2017-12-30T23:15:01.470Z,0.40
2017-12-30T23:17:29.139Z,0.40
2017-12-30T23:19:56.785Z,0.40
2017-12-30T23:22:24.524Z,0.53
2017-12-30T23:24:52.161Z,0.43
2017-12-30T23:27:19.788Z,0.40
2017-12-30T23:29:47.427Z,0.50
2017-12-30T23:32:16.190Z,0.30
2017-12-30T23:34:44.256Z,0.30
2017-12-30T23:37:11.943Z,0.20
2017-12-30T23:39:39.643Z,0.40
2017-12-30T23:42:07.327Z,0.53
2017-12-30T23:44:34.957Z,0.60
2017-12-30T23:47:02.668Z,1.23
2017-12-30T23:49:30.358Z,0.53
2017-12-30T23:51:58.003Z,0.40
2017-12-30T23:54:25.676Z,1.23
2017-12-30T23:56:53.382Z,0.40
2017-12-30T23:59:21.016Z,1.67
